<?xml version="1.0" encoding="UTF-8"?>
<gpx xmlns:xsi="http://www.w3.org/2001/XMLSchema-instance" xsi:schemaLocation="http://www.topografix.com/GPX/1/1 http://www.topografix.com/GPX/1/1/gpx.xsd" creator="StravaGPX" version="1.1" xmlns="http://www.topografix.com/GPX/1/1">
 <metadata>
  <time>2025-12-22T12:35:27Z</time>
 </metadata>
 <trk>
  <name>Marks and Spencer</name>
  <type>walking</type>
  <trkseg>
   <trkpt lat="53.3431050" lon="-6.2481040">
    <ele>12.0</ele>
    <time>2025-12-22T12:35:27Z</time>
   </trkpt>
   <trkpt lat="53.3430910" lon="-6.2480180">
    <ele>12.1</ele>
    <time>2025-12-22T12:35:33Z</time>
   </trkpt>
   <trkpt lat="53.3431450" lon="-6.2480950">
    <ele>12.1</ele>
    <time>2025-12-22T12:35:39Z</time>
   </trkpt>
   <trkpt lat="53.3431870" lon="-6.2481830">
    <ele>12.1</ele>
    <time>2025-12-22T12:35:49Z</time>
   </trkpt>
   <trkpt lat="53.3433070" lon="-6.2482060">
    <ele>12.0</ele>
    <time>2025-12-22T12:35:54Z</time>
   </trkpt>
   <trkpt lat="53.3433810" lon="-6.2480690">
    <ele>12.0</ele>
    <time>2025-12-22T12:35:59Z</time>
   </trkpt>
   <trkpt lat="53.3434490" lon="-6.2481210">
    <ele>11.9</ele>
    <time>2025-12-22T12:36:04Z</time>
   </trkpt>
   <trkpt lat="53.3435200" lon="-6.2482150">
    <ele>12.0</ele>
    <time>2025-12-22T12:36:10Z</time>
   </trkpt>
   <trkpt lat="53.3435540" lon="-6.2483110">
    <ele>12.0</ele>
    <time>2025-12-22T12:36:16Z</time>
   </trkpt>
   <trkpt lat="53.3436020" lon="-6.2484020">
    <ele>12.0</ele>
    <time>2025-12-22T12:36:22Z</time>
   </trkpt>
   <trkpt lat="53.3436670" lon="-6.2485960">
    <ele>11.9</ele>
    <time>2025-12-22T12:36:31Z</time>
   </trkpt>
   <trkpt lat="53.3437370" lon="-6.2485930">
    <ele>11.9</ele>
    <time>2025-12-22T12:36:37Z</time>
   </trkpt>
   <trkpt lat="53.3436100" lon="-6.2487680">
    <ele>11.6</ele>
    <time>2025-12-22T12:38:07Z</time>
   </trkpt>
   <trkpt lat="53.3435550" lon="-6.2488430">
    <ele>11.7</ele>
    <time>2025-12-22T12:38:12Z</time>
   </trkpt>
   <trkpt lat="53.3435570" lon="-6.2489240">
    <ele>11.9</ele>
    <time>2025-12-22T12:38:18Z</time>
   </trkpt>
   <trkpt lat="53.3435460" lon="-6.2489980">
    <ele>11.9</ele>
    <time>2025-12-22T12:38:25Z</time>
   </trkpt>
   <trkpt lat="53.3435640" lon="-6.2490750">
    <ele>11.9</ele>
    <time>2025-12-22T12:38:33Z</time>
   </trkpt>
   <trkpt lat="53.3435960" lon="-6.2491330">
    <ele>11.9</ele>
    <time>2025-12-22T12:38:38Z</time>
   </trkpt>
   <trkpt lat="53.3436150" lon="-6.2492280">
    <ele>11.9</ele>
    <time>2025-12-22T12:38:44Z</time>
   </trkpt>
   <trkpt lat="53.3436650" lon="-6.2494790">
    <ele>7.9</ele>
    <time>2025-12-22T12:39:01Z</time>
   </trkpt>
   <trkpt lat="53.3436670" lon="-6.2496950">
    <ele>6.9</ele>
    <time>2025-12-22T12:39:44Z</time>
   </trkpt>
   <trkpt lat="53.3436490" lon="-6.2497650">
    <ele>6.9</ele>
    <time>2025-12-22T12:39:50Z</time>
   </trkpt>
   <trkpt lat="53.3435740" lon="-6.2497280">
    <ele>6.9</ele>
    <time>2025-12-22T12:39:56Z</time>
   </trkpt>
   <trkpt lat="53.3435000" lon="-6.2496750">
    <ele>6.9</ele>
    <time>2025-12-22T12:40:01Z</time>
   </trkpt>
   <trkpt lat="53.3434600" lon="-6.2497090">
    <ele>6.9</ele>
    <time>2025-12-22T12:40:07Z</time>
   </trkpt>
   <trkpt lat="53.3433770" lon="-6.2496590">
    <ele>6.8</ele>
    <time>2025-12-22T12:40:12Z</time>
   </trkpt>
   <trkpt lat="53.3434290" lon="-6.2496790">
    <ele>6.8</ele>
    <time>2025-12-22T12:40:30Z</time>
   </trkpt>
   <trkpt lat="53.3434090" lon="-6.2497500">
    <ele>6.9</ele>
    <time>2025-12-22T12:40:43Z</time>
   </trkpt>
   <trkpt lat="53.3433680" lon="-6.2498510">
    <ele>6.9</ele>
    <time>2025-12-22T12:40:48Z</time>
   </trkpt>
   <trkpt lat="53.3433170" lon="-6.2499130">
    <ele>6.9</ele>
    <time>2025-12-22T12:40:53Z</time>
   </trkpt>
   <trkpt lat="53.3432750" lon="-6.2499550">
    <ele>6.9</ele>
    <time>2025-12-22T12:40:58Z</time>
   </trkpt>
   <trkpt lat="53.3432330" lon="-6.2499880">
    <ele>6.9</ele>
    <time>2025-12-22T12:41:04Z</time>
   </trkpt>
   <trkpt lat="53.3431820" lon="-6.2500240">
    <ele>6.9</ele>
    <time>2025-12-22T12:41:09Z</time>
   </trkpt>
   <trkpt lat="53.3431270" lon="-6.2500530">
    <ele>6.9</ele>
    <time>2025-12-22T12:41:14Z</time>
   </trkpt>
   <trkpt lat="53.3430750" lon="-6.2500870">
    <ele>6.7</ele>
    <time>2025-12-22T12:41:19Z</time>
   </trkpt>
   <trkpt lat="53.3430180" lon="-6.2501280">
    <ele>6.5</ele>
    <time>2025-12-22T12:41:24Z</time>
   </trkpt>
   <trkpt lat="53.3429500" lon="-6.2501630">
    <ele>6.9</ele>
    <time>2025-12-22T12:41:29Z</time>
   </trkpt>
   <trkpt lat="53.3429080" lon="-6.2502090">
    <ele>7.9</ele>
    <time>2025-12-22T12:41:48Z</time>
   </trkpt>
   <trkpt lat="53.3428170" lon="-6.2502530">
    <ele>8.1</ele>
    <time>2025-12-22T12:41:54Z</time>
   </trkpt>
   <trkpt lat="53.3427420" lon="-6.2502720">
    <ele>8.1</ele>
    <time>2025-12-22T12:41:59Z</time>
   </trkpt>
   <trkpt lat="53.3426830" lon="-6.2503020">
    <ele>8.2</ele>
    <time>2025-12-22T12:42:04Z</time>
   </trkpt>
   <trkpt lat="53.3426150" lon="-6.2503530">
    <ele>8.2</ele>
    <time>2025-12-22T12:42:10Z</time>
   </trkpt>
   <trkpt lat="53.3425550" lon="-6.2503960">
    <ele>8.1</ele>
    <time>2025-12-22T12:42:15Z</time>
   </trkpt>
   <trkpt lat="53.3424890" lon="-6.2504380">
    <ele>8.0</ele>
    <time>2025-12-22T12:42:21Z</time>
   </trkpt>
   <trkpt lat="53.3424140" lon="-6.2504790">
    <ele>8.1</ele>
    <time>2025-12-22T12:42:26Z</time>
   </trkpt>
   <trkpt lat="53.3423460" lon="-6.2505170">
    <ele>8.1</ele>
    <time>2025-12-22T12:42:32Z</time>
   </trkpt>
   <trkpt lat="53.3422650" lon="-6.2505590">
    <ele>8.1</ele>
    <time>2025-12-22T12:42:37Z</time>
   </trkpt>
   <trkpt lat="53.3422090" lon="-6.2505990">
    <ele>8.0</ele>
    <time>2025-12-22T12:42:42Z</time>
   </trkpt>
   <trkpt lat="53.3421470" lon="-6.2506350">
    <ele>8.1</ele>
    <time>2025-12-22T12:42:48Z</time>
   </trkpt>
   <trkpt lat="53.3420980" lon="-6.2506640">
    <ele>8.2</ele>
    <time>2025-12-22T12:42:53Z</time>
   </trkpt>
   <trkpt lat="53.3420910" lon="-6.2507390">
    <ele>8.1</ele>
    <time>2025-12-22T12:43:08Z</time>
   </trkpt>
   <trkpt lat="53.3421390" lon="-6.2508750">
    <ele>8.3</ele>
    <time>2025-12-22T12:43:14Z</time>
   </trkpt>
   <trkpt lat="53.3421710" lon="-6.2509550">
    <ele>8.3</ele>
    <time>2025-12-22T12:43:20Z</time>
   </trkpt>
   <trkpt lat="53.3421810" lon="-6.2510860">
    <ele>8.3</ele>
    <time>2025-12-22T12:43:25Z</time>
   </trkpt>
   <trkpt lat="53.3421980" lon="-6.2511800">
    <ele>8.3</ele>
    <time>2025-12-22T12:43:30Z</time>
   </trkpt>
   <trkpt lat="53.3422180" lon="-6.2513020">
    <ele>8.2</ele>
    <time>2025-12-22T12:43:36Z</time>
   </trkpt>
   <trkpt lat="53.3422340" lon="-6.2514190">
    <ele>8.0</ele>
    <time>2025-12-22T12:43:41Z</time>
   </trkpt>
   <trkpt lat="53.3422350" lon="-6.2514980">
    <ele>7.8</ele>
    <time>2025-12-22T12:43:47Z</time>
   </trkpt>
   <trkpt lat="53.3422310" lon="-6.2515860">
    <ele>7.8</ele>
    <time>2025-12-22T12:43:52Z</time>
   </trkpt>
   <trkpt lat="53.3421970" lon="-6.2517000">
    <ele>7.8</ele>
    <time>2025-12-22T12:43:57Z</time>
   </trkpt>
   <trkpt lat="53.3421680" lon="-6.2518140">
    <ele>7.7</ele>
    <time>2025-12-22T12:44:02Z</time>
   </trkpt>
   <trkpt lat="53.3421360" lon="-6.2519150">
    <ele>7.6</ele>
    <time>2025-12-22T12:44:08Z</time>
   </trkpt>
   <trkpt lat="53.3421060" lon="-6.2519950">
    <ele>7.5</ele>
    <time>2025-12-22T12:44:13Z</time>
   </trkpt>
   <trkpt lat="53.3420790" lon="-6.2520690">
    <ele>7.6</ele>
    <time>2025-12-22T12:44:18Z</time>
   </trkpt>
   <trkpt lat="53.3420450" lon="-6.2521500">
    <ele>7.7</ele>
    <time>2025-12-22T12:44:23Z</time>
   </trkpt>
   <trkpt lat="53.3420050" lon="-6.2522450">
    <ele>7.7</ele>
    <time>2025-12-22T12:44:29Z</time>
   </trkpt>
   <trkpt lat="53.3419670" lon="-6.2523280">
    <ele>7.7</ele>
    <time>2025-12-22T12:44:34Z</time>
   </trkpt>
   <trkpt lat="53.3419310" lon="-6.2524120">
    <ele>7.7</ele>
    <time>2025-12-22T12:44:39Z</time>
   </trkpt>
   <trkpt lat="53.3419270" lon="-6.2524940">
    <ele>7.8</ele>
    <time>2025-12-22T12:44:45Z</time>
   </trkpt>
   <trkpt lat="53.3419220" lon="-6.2526580">
    <ele>7.9</ele>
    <time>2025-12-22T12:44:51Z</time>
   </trkpt>
   <trkpt lat="53.3419280" lon="-6.2527670">
    <ele>8.0</ele>
    <time>2025-12-22T12:44:56Z</time>
   </trkpt>
   <trkpt lat="53.3419300" lon="-6.2528810">
    <ele>8.1</ele>
    <time>2025-12-22T12:45:01Z</time>
   </trkpt>
   <trkpt lat="53.3419220" lon="-6.2529880">
    <ele>8.3</ele>
    <time>2025-12-22T12:45:06Z</time>
   </trkpt>
   <trkpt lat="53.3418770" lon="-6.2530630">
    <ele>8.4</ele>
    <time>2025-12-22T12:45:11Z</time>
   </trkpt>
   <trkpt lat="53.3418380" lon="-6.2531330">
    <ele>8.3</ele>
    <time>2025-12-22T12:45:17Z</time>
   </trkpt>
   <trkpt lat="53.3418390" lon="-6.2532110">
    <ele>8.1</ele>
    <time>2025-12-22T12:45:23Z</time>
   </trkpt>
   <trkpt lat="53.3418610" lon="-6.2533230">
    <ele>8.3</ele>
    <time>2025-12-22T12:45:28Z</time>
   </trkpt>
   <trkpt lat="53.3418840" lon="-6.2534470">
    <ele>8.6</ele>
    <time>2025-12-22T12:45:33Z</time>
   </trkpt>
   <trkpt lat="53.3419040" lon="-6.2535400">
    <ele>8.7</ele>
    <time>2025-12-22T12:45:38Z</time>
   </trkpt>
   <trkpt lat="53.3419280" lon="-6.2536210">
    <ele>8.8</ele>
    <time>2025-12-22T12:45:43Z</time>
   </trkpt>
   <trkpt lat="53.3419670" lon="-6.2537100">
    <ele>8.7</ele>
    <time>2025-12-22T12:45:49Z</time>
   </trkpt>
   <trkpt lat="53.3419820" lon="-6.2538090">
    <ele>8.7</ele>
    <time>2025-12-22T12:45:54Z</time>
   </trkpt>
   <trkpt lat="53.3419980" lon="-6.2539010">
    <ele>8.8</ele>
    <time>2025-12-22T12:45:59Z</time>
   </trkpt>
   <trkpt lat="53.3420110" lon="-6.2539890">
    <ele>8.8</ele>
    <time>2025-12-22T12:46:05Z</time>
   </trkpt>
   <trkpt lat="53.3420180" lon="-6.2540790">
    <ele>8.8</ele>
    <time>2025-12-22T12:46:10Z</time>
   </trkpt>
   <trkpt lat="53.3420450" lon="-6.2542090">
    <ele>8.8</ele>
    <time>2025-12-22T12:46:16Z</time>
   </trkpt>
   <trkpt lat="53.3420770" lon="-6.2543380">
    <ele>8.8</ele>
    <time>2025-12-22T12:46:21Z</time>
   </trkpt>
   <trkpt lat="53.3421050" lon="-6.2544580">
    <ele>8.8</ele>
    <time>2025-12-22T12:46:27Z</time>
   </trkpt>
   <trkpt lat="53.3421110" lon="-6.2545350">
    <ele>9.1</ele>
    <time>2025-12-22T12:47:15Z</time>
   </trkpt>
   <trkpt lat="53.3421580" lon="-6.2546790">
    <ele>9.3</ele>
    <time>2025-12-22T12:47:20Z</time>
   </trkpt>
   <trkpt lat="53.3421880" lon="-6.2547810">
    <ele>9.4</ele>
    <time>2025-12-22T12:47:25Z</time>
   </trkpt>
   <trkpt lat="53.3421980" lon="-6.2548910">
    <ele>9.1</ele>
    <time>2025-12-22T12:47:31Z</time>
   </trkpt>
   <trkpt lat="53.3422160" lon="-6.2550170">
    <ele>9.3</ele>
    <time>2025-12-22T12:47:36Z</time>
   </trkpt>
   <trkpt lat="53.3422340" lon="-6.2551310">
    <ele>9.4</ele>
    <time>2025-12-22T12:47:42Z</time>
   </trkpt>
   <trkpt lat="53.3422650" lon="-6.2552430">
    <ele>9.5</ele>
    <time>2025-12-22T12:47:47Z</time>
   </trkpt>
   <trkpt lat="53.3422770" lon="-6.2553420">
    <ele>9.5</ele>
    <time>2025-12-22T12:47:52Z</time>
   </trkpt>
   <trkpt lat="53.3423000" lon="-6.2554530">
    <ele>9.5</ele>
    <time>2025-12-22T12:47:58Z</time>
   </trkpt>
   <trkpt lat="53.3423180" lon="-6.2555500">
    <ele>9.5</ele>
    <time>2025-12-22T12:48:03Z</time>
   </trkpt>
   <trkpt lat="53.3423420" lon="-6.2556400">
    <ele>9.5</ele>
    <time>2025-12-22T12:48:08Z</time>
   </trkpt>
   <trkpt lat="53.3423740" lon="-6.2557300">
    <ele>9.5</ele>
    <time>2025-12-22T12:48:13Z</time>
   </trkpt>
   <trkpt lat="53.3423920" lon="-6.2558640">
    <ele>9.5</ele>
    <time>2025-12-22T12:48:19Z</time>
   </trkpt>
   <trkpt lat="53.3424000" lon="-6.2559530">
    <ele>9.5</ele>
    <time>2025-12-22T12:48:24Z</time>
   </trkpt>
   <trkpt lat="53.3424250" lon="-6.2560470">
    <ele>9.3</ele>
    <time>2025-12-22T12:48:29Z</time>
   </trkpt>
   <trkpt lat="53.3424460" lon="-6.2561710">
    <ele>9.7</ele>
    <time>2025-12-22T12:48:35Z</time>
   </trkpt>
   <trkpt lat="53.3424740" lon="-6.2562780">
    <ele>10.7</ele>
    <time>2025-12-22T12:48:40Z</time>
   </trkpt>
   <trkpt lat="53.3424890" lon="-6.2563580">
    <ele>10.1</ele>
    <time>2025-12-22T12:48:45Z</time>
   </trkpt>
   <trkpt lat="53.3425280" lon="-6.2564330">
    <ele>9.6</ele>
    <time>2025-12-22T12:48:50Z</time>
   </trkpt>
   <trkpt lat="53.3425570" lon="-6.2565170">
    <ele>9.9</ele>
    <time>2025-12-22T12:48:56Z</time>
   </trkpt>
   <trkpt lat="53.3425910" lon="-6.2566050">
    <ele>9.6</ele>
    <time>2025-12-22T12:49:01Z</time>
   </trkpt>
   <trkpt lat="53.3426310" lon="-6.2567420">
    <ele>9.2</ele>
    <time>2025-12-22T12:49:08Z</time>
   </trkpt>
   <trkpt lat="53.3426680" lon="-6.2568330">
    <ele>9.0</ele>
    <time>2025-12-22T12:49:14Z</time>
   </trkpt>
   <trkpt lat="53.3426950" lon="-6.2569550">
    <ele>8.8</ele>
    <time>2025-12-22T12:49:19Z</time>
   </trkpt>
   <trkpt lat="53.3427190" lon="-6.2570550">
    <ele>8.6</ele>
    <time>2025-12-22T12:49:24Z</time>
   </trkpt>
   <trkpt lat="53.3427360" lon="-6.2571660">
    <ele>8.5</ele>
    <time>2025-12-22T12:49:29Z</time>
   </trkpt>
   <trkpt lat="53.3427640" lon="-6.2572590">
    <ele>8.5</ele>
    <time>2025-12-22T12:49:34Z</time>
   </trkpt>
   <trkpt lat="53.3427810" lon="-6.2573700">
    <ele>8.5</ele>
    <time>2025-12-22T12:49:39Z</time>
   </trkpt>
   <trkpt lat="53.3428100" lon="-6.2574820">
    <ele>8.4</ele>
    <time>2025-12-22T12:49:45Z</time>
   </trkpt>
   <trkpt lat="53.3428330" lon="-6.2575790">
    <ele>8.4</ele>
    <time>2025-12-22T12:49:50Z</time>
   </trkpt>
   <trkpt lat="53.3428380" lon="-6.2576560">
    <ele>8.5</ele>
    <time>2025-12-22T12:49:55Z</time>
   </trkpt>
   <trkpt lat="53.3428420" lon="-6.2577680">
    <ele>8.5</ele>
    <time>2025-12-22T12:50:01Z</time>
   </trkpt>
   <trkpt lat="53.3428620" lon="-6.2578550">
    <ele>8.6</ele>
    <time>2025-12-22T12:50:06Z</time>
   </trkpt>
   <trkpt lat="53.3428570" lon="-6.2579500">
    <ele>7.9</ele>
    <time>2025-12-22T12:50:12Z</time>
   </trkpt>
   <trkpt lat="53.3426920" lon="-6.2579550">
    <ele>8.5</ele>
    <time>2025-12-22T12:50:19Z</time>
   </trkpt>
   <trkpt lat="53.3425530" lon="-6.2580140">
    <ele>8.6</ele>
    <time>2025-12-22T12:50:29Z</time>
   </trkpt>
   <trkpt lat="53.3424890" lon="-6.2580250">
    <ele>8.7</ele>
    <time>2025-12-22T12:50:34Z</time>
   </trkpt>
   <trkpt lat="53.3424370" lon="-6.2580550">
    <ele>8.6</ele>
    <time>2025-12-22T12:50:40Z</time>
   </trkpt>
   <trkpt lat="53.3423830" lon="-6.2580620">
    <ele>8.6</ele>
    <time>2025-12-22T12:50:45Z</time>
   </trkpt>
   <trkpt lat="53.3423150" lon="-6.2580780">
    <ele>8.7</ele>
    <time>2025-12-22T12:50:50Z</time>
   </trkpt>
   <trkpt lat="53.3422520" lon="-6.2580970">
    <ele>8.9</ele>
    <time>2025-12-22T12:50:55Z</time>
   </trkpt>
   <trkpt lat="53.3421980" lon="-6.2581070">
    <ele>9.1</ele>
    <time>2025-12-22T12:51:01Z</time>
   </trkpt>
   <trkpt lat="53.3421510" lon="-6.2581270">
    <ele>9.3</ele>
    <time>2025-12-22T12:51:06Z</time>
   </trkpt>
   <trkpt lat="53.3420950" lon="-6.2581180">
    <ele>9.6</ele>
    <time>2025-12-22T12:51:11Z</time>
   </trkpt>
   <trkpt lat="53.3420180" lon="-6.2581490">
    <ele>9.7</ele>
    <time>2025-12-22T12:51:17Z</time>
   </trkpt>
   <trkpt lat="53.3419390" lon="-6.2581620">
    <ele>9.8</ele>
    <time>2025-12-22T12:51:22Z</time>
   </trkpt>
   <trkpt lat="53.3418750" lon="-6.2581640">
    <ele>9.9</ele>
    <time>2025-12-22T12:51:27Z</time>
   </trkpt>
   <trkpt lat="53.3418280" lon="-6.2582130">
    <ele>10.0</ele>
    <time>2025-12-22T12:51:33Z</time>
   </trkpt>
   <trkpt lat="53.3418100" lon="-6.2582890">
    <ele>10.0</ele>
    <time>2025-12-22T12:51:41Z</time>
   </trkpt>
   <trkpt lat="53.3418380" lon="-6.2583850">
    <ele>10.0</ele>
    <time>2025-12-22T12:51:46Z</time>
   </trkpt>
   <trkpt lat="53.3418540" lon="-6.2584980">
    <ele>10.0</ele>
    <time>2025-12-22T12:51:51Z</time>
   </trkpt>
   <trkpt lat="53.3418710" lon="-6.2586150">
    <ele>10.0</ele>
    <time>2025-12-22T12:51:57Z</time>
   </trkpt>
   <trkpt lat="53.3418860" lon="-6.2586930">
    <ele>10.1</ele>
    <time>2025-12-22T12:52:02Z</time>
   </trkpt>
   <trkpt lat="53.3418930" lon="-6.2587840">
    <ele>10.1</ele>
    <time>2025-12-22T12:52:07Z</time>
   </trkpt>
   <trkpt lat="53.3419120" lon="-6.2588910">
    <ele>10.3</ele>
    <time>2025-12-22T12:52:13Z</time>
   </trkpt>
   <trkpt lat="53.3419240" lon="-6.2589830">
    <ele>10.4</ele>
    <time>2025-12-22T12:52:18Z</time>
   </trkpt>
   <trkpt lat="53.3419350" lon="-6.2590740">
    <ele>10.3</ele>
    <time>2025-12-22T12:52:24Z</time>
   </trkpt>
   <trkpt lat="53.3419530" lon="-6.2591460">
    <ele>10.6</ele>
    <time>2025-12-22T12:52:30Z</time>
   </trkpt>
   <trkpt lat="53.3422280" lon="-6.2596530">
    <ele>9.7</ele>
    <time>2025-12-22T13:26:07Z</time>
   </trkpt>
   <trkpt lat="53.3421980" lon="-6.2597590">
    <ele>10.1</ele>
    <time>2025-12-22T13:26:13Z</time>
   </trkpt>
   <trkpt lat="53.3422120" lon="-6.2598360">
    <ele>10.3</ele>
    <time>2025-12-22T13:26:22Z</time>
   </trkpt>
   <trkpt lat="53.3422590" lon="-6.2598790">
    <ele>10.4</ele>
    <time>2025-12-22T13:26:27Z</time>
   </trkpt>
   <trkpt lat="53.3422970" lon="-6.2599460">
    <ele>10.4</ele>
    <time>2025-12-22T13:32:43Z</time>
   </trkpt>
   <trkpt lat="53.3423590" lon="-6.2598010">
    <ele>10.4</ele>
    <time>2025-12-22T13:32:49Z</time>
   </trkpt>
   <trkpt lat="53.3424060" lon="-6.2596640">
    <ele>10.3</ele>
    <time>2025-12-22T13:32:54Z</time>
   </trkpt>
   <trkpt lat="53.3424560" lon="-6.2596290">
    <ele>10.3</ele>
    <time>2025-12-22T13:32:59Z</time>
   </trkpt>
   <trkpt lat="53.3425090" lon="-6.2596120">
    <ele>10.2</ele>
    <time>2025-12-22T13:33:05Z</time>
   </trkpt>
   <trkpt lat="53.3425560" lon="-6.2596230">
    <ele>10.2</ele>
    <time>2025-12-22T13:33:12Z</time>
   </trkpt>
   <trkpt lat="53.3425860" lon="-6.2595640">
    <ele>10.2</ele>
    <time>2025-12-22T13:33:17Z</time>
   </trkpt>
   <trkpt lat="53.3426280" lon="-6.2596140">
    <ele>10.1</ele>
    <time>2025-12-22T13:33:22Z</time>
   </trkpt>
   <trkpt lat="53.3426710" lon="-6.2594970">
    <ele>10.0</ele>
    <time>2025-12-22T13:33:28Z</time>
   </trkpt>
   <trkpt lat="53.3427310" lon="-6.2594690">
    <ele>10.0</ele>
    <time>2025-12-22T13:33:33Z</time>
   </trkpt>
   <trkpt lat="53.3428200" lon="-6.2594330">
    <ele>9.8</ele>
    <time>2025-12-22T13:33:41Z</time>
   </trkpt>
   <trkpt lat="53.3428720" lon="-6.2594080">
    <ele>9.7</ele>
    <time>2025-12-22T13:33:46Z</time>
   </trkpt>
   <trkpt lat="53.3429230" lon="-6.2593930">
    <ele>9.7</ele>
    <time>2025-12-22T13:33:51Z</time>
   </trkpt>
   <trkpt lat="53.3429820" lon="-6.2593720">
    <ele>9.6</ele>
    <time>2025-12-22T13:33:56Z</time>
   </trkpt>
   <trkpt lat="53.3430530" lon="-6.2593650">
    <ele>9.5</ele>
    <time>2025-12-22T13:34:02Z</time>
   </trkpt>
   <trkpt lat="53.3430980" lon="-6.2593390">
    <ele>9.4</ele>
    <time>2025-12-22T13:34:08Z</time>
   </trkpt>
   <trkpt lat="53.3431370" lon="-6.2592970">
    <ele>9.4</ele>
    <time>2025-12-22T13:34:13Z</time>
   </trkpt>
   <trkpt lat="53.3431520" lon="-6.2592170">
    <ele>9.3</ele>
    <time>2025-12-22T13:34:20Z</time>
   </trkpt>
   <trkpt lat="53.3431360" lon="-6.2591100">
    <ele>9.2</ele>
    <time>2025-12-22T13:34:25Z</time>
   </trkpt>
   <trkpt lat="53.3431220" lon="-6.2590310">
    <ele>9.2</ele>
    <time>2025-12-22T13:34:31Z</time>
   </trkpt>
   <trkpt lat="53.3431010" lon="-6.2589490">
    <ele>9.2</ele>
    <time>2025-12-22T13:34:36Z</time>
   </trkpt>
   <trkpt lat="53.3430800" lon="-6.2588760">
    <ele>9.1</ele>
    <time>2025-12-22T13:34:43Z</time>
   </trkpt>
   <trkpt lat="53.3430550" lon="-6.2587880">
    <ele>9.0</ele>
    <time>2025-12-22T13:34:48Z</time>
   </trkpt>
   <trkpt lat="53.3430510" lon="-6.2587080">
    <ele>8.9</ele>
    <time>2025-12-22T13:34:56Z</time>
   </trkpt>
   <trkpt lat="53.3430340" lon="-6.2586300">
    <ele>8.9</ele>
    <time>2025-12-22T13:35:02Z</time>
   </trkpt>
   <trkpt lat="53.3430220" lon="-6.2585570">
    <ele>8.9</ele>
    <time>2025-12-22T13:35:08Z</time>
   </trkpt>
   <trkpt lat="53.3430080" lon="-6.2584780">
    <ele>8.9</ele>
    <time>2025-12-22T13:35:13Z</time>
   </trkpt>
   <trkpt lat="53.3429930" lon="-6.2584030">
    <ele>8.9</ele>
    <time>2025-12-22T13:35:19Z</time>
   </trkpt>
   <trkpt lat="53.3429820" lon="-6.2583190">
    <ele>8.9</ele>
    <time>2025-12-22T13:35:25Z</time>
   </trkpt>
   <trkpt lat="53.3429570" lon="-6.2581900">
    <ele>8.8</ele>
    <time>2025-12-22T13:35:32Z</time>
   </trkpt>
   <trkpt lat="53.3429360" lon="-6.2580870">
    <ele>8.7</ele>
    <time>2025-12-22T13:35:37Z</time>
   </trkpt>
   <trkpt lat="53.3429130" lon="-6.2579810">
    <ele>8.7</ele>
    <time>2025-12-22T13:35:43Z</time>
   </trkpt>
   <trkpt lat="53.3428770" lon="-6.2579250">
    <ele>8.7</ele>
    <time>2025-12-22T13:35:48Z</time>
   </trkpt>
   <trkpt lat="53.3428300" lon="-6.2579220">
    <ele>8.7</ele>
    <time>2025-12-22T13:35:54Z</time>
   </trkpt>
   <trkpt lat="53.3427880" lon="-6.2578930">
    <ele>8.7</ele>
    <time>2025-12-22T13:36:06Z</time>
   </trkpt>
   <trkpt lat="53.3427130" lon="-6.2579320">
    <ele>9.4</ele>
    <time>2025-12-22T13:36:11Z</time>
   </trkpt>
   <trkpt lat="53.3426430" lon="-6.2579560">
    <ele>10.0</ele>
    <time>2025-12-22T13:36:16Z</time>
   </trkpt>
   <trkpt lat="53.3425860" lon="-6.2579860">
    <ele>10.2</ele>
    <time>2025-12-22T13:36:21Z</time>
   </trkpt>
   <trkpt lat="53.3425240" lon="-6.2580150">
    <ele>10.3</ele>
    <time>2025-12-22T13:36:26Z</time>
   </trkpt>
   <trkpt lat="53.3424600" lon="-6.2580220">
    <ele>9.8</ele>
    <time>2025-12-22T13:36:31Z</time>
   </trkpt>
   <trkpt lat="53.3424080" lon="-6.2580450">
    <ele>9.4</ele>
    <time>2025-12-22T13:36:37Z</time>
   </trkpt>
   <trkpt lat="53.3423480" lon="-6.2580620">
    <ele>9.3</ele>
    <time>2025-12-22T13:36:42Z</time>
   </trkpt>
   <trkpt lat="53.3422880" lon="-6.2580830">
    <ele>9.2</ele>
    <time>2025-12-22T13:36:48Z</time>
   </trkpt>
   <trkpt lat="53.3422170" lon="-6.2581040">
    <ele>9.6</ele>
    <time>2025-12-22T13:36:53Z</time>
   </trkpt>
   <trkpt lat="53.3421590" lon="-6.2581250">
    <ele>9.7</ele>
    <time>2025-12-22T13:36:58Z</time>
   </trkpt>
   <trkpt lat="53.3421000" lon="-6.2581470">
    <ele>9.7</ele>
    <time>2025-12-22T13:37:04Z</time>
   </trkpt>
   <trkpt lat="53.3420460" lon="-6.2581640">
    <ele>9.6</ele>
    <time>2025-12-22T13:37:09Z</time>
   </trkpt>
   <trkpt lat="53.3420040" lon="-6.2581890">
    <ele>9.6</ele>
    <time>2025-12-22T13:37:15Z</time>
   </trkpt>
   <trkpt lat="53.3420240" lon="-6.2580870">
    <ele>9.6</ele>
    <time>2025-12-22T13:41:30Z</time>
   </trkpt>
   <trkpt lat="53.3419840" lon="-6.2579190">
    <ele>9.6</ele>
    <time>2025-12-22T13:41:35Z</time>
   </trkpt>
   <trkpt lat="53.3420300" lon="-6.2579060">
    <ele>9.6</ele>
    <time>2025-12-22T13:41:42Z</time>
   </trkpt>
   <trkpt lat="53.3421190" lon="-6.2579260">
    <ele>9.4</ele>
    <time>2025-12-22T13:41:47Z</time>
   </trkpt>
   <trkpt lat="53.3421890" lon="-6.2579890">
    <ele>9.2</ele>
    <time>2025-12-22T13:41:53Z</time>
   </trkpt>
   <trkpt lat="53.3422250" lon="-6.2581270">
    <ele>9.2</ele>
    <time>2025-12-22T13:41:59Z</time>
   </trkpt>
   <trkpt lat="53.3421870" lon="-6.2581760">
    <ele>9.2</ele>
    <time>2025-12-22T13:42:49Z</time>
   </trkpt>
   <trkpt lat="53.3422350" lon="-6.2581840">
    <ele>8.8</ele>
    <time>2025-12-22T13:43:11Z</time>
   </trkpt>
   <trkpt lat="53.3423190" lon="-6.2581880">
    <ele>8.6</ele>
    <time>2025-12-22T13:43:16Z</time>
   </trkpt>
   <trkpt lat="53.3423460" lon="-6.2582530">
    <ele>9.8</ele>
    <time>2025-12-22T13:43:24Z</time>
   </trkpt>
   <trkpt lat="53.3424050" lon="-6.2582920">
    <ele>9.0</ele>
    <time>2025-12-22T13:43:29Z</time>
   </trkpt>
   <trkpt lat="53.3424550" lon="-6.2583350">
    <ele>9.6</ele>
    <time>2025-12-22T13:43:34Z</time>
   </trkpt>
   <trkpt lat="53.3425710" lon="-6.2583780">
    <ele>10.0</ele>
    <time>2025-12-22T13:43:40Z</time>
   </trkpt>
   <trkpt lat="53.3426650" lon="-6.2583410">
    <ele>9.4</ele>
    <time>2025-12-22T13:43:45Z</time>
   </trkpt>
   <trkpt lat="53.3427000" lon="-6.2582840">
    <ele>9.0</ele>
    <time>2025-12-22T13:43:50Z</time>
   </trkpt>
   <trkpt lat="53.3427610" lon="-6.2581390">
    <ele>8.7</ele>
    <time>2025-12-22T13:43:56Z</time>
   </trkpt>
   <trkpt lat="53.3427520" lon="-6.2580340">
    <ele>8.6</ele>
    <time>2025-12-22T13:44:01Z</time>
   </trkpt>
   <trkpt lat="53.3427190" lon="-6.2578960">
    <ele>8.5</ele>
    <time>2025-12-22T13:44:06Z</time>
   </trkpt>
   <trkpt lat="53.3427950" lon="-6.2577600">
    <ele>8.5</ele>
    <time>2025-12-22T13:44:11Z</time>
   </trkpt>
   <trkpt lat="53.3428160" lon="-6.2575800">
    <ele>8.4</ele>
    <time>2025-12-22T13:44:16Z</time>
   </trkpt>
   <trkpt lat="53.3428110" lon="-6.2574050">
    <ele>8.4</ele>
    <time>2025-12-22T13:44:21Z</time>
   </trkpt>
   <trkpt lat="53.3428060" lon="-6.2572830">
    <ele>8.4</ele>
    <time>2025-12-22T13:44:26Z</time>
   </trkpt>
   <trkpt lat="53.3427680" lon="-6.2571190">
    <ele>8.5</ele>
    <time>2025-12-22T13:44:32Z</time>
   </trkpt>
   <trkpt lat="53.3427510" lon="-6.2569710">
    <ele>8.6</ele>
    <time>2025-12-22T13:44:37Z</time>
   </trkpt>
   <trkpt lat="53.3427360" lon="-6.2568480">
    <ele>8.7</ele>
    <time>2025-12-22T13:44:42Z</time>
   </trkpt>
   <trkpt lat="53.3427150" lon="-6.2567340">
    <ele>8.6</ele>
    <time>2025-12-22T13:44:47Z</time>
   </trkpt>
   <trkpt lat="53.3427150" lon="-6.2566560">
    <ele>8.7</ele>
    <time>2025-12-22T13:44:57Z</time>
   </trkpt>
   <trkpt lat="53.3426820" lon="-6.2564800">
    <ele>8.6</ele>
    <time>2025-12-22T13:45:02Z</time>
   </trkpt>
   <trkpt lat="53.3426590" lon="-6.2563760">
    <ele>8.7</ele>
    <time>2025-12-22T13:45:08Z</time>
   </trkpt>
   <trkpt lat="53.3426260" lon="-6.2562590">
    <ele>8.8</ele>
    <time>2025-12-22T13:45:13Z</time>
   </trkpt>
   <trkpt lat="53.3426110" lon="-6.2561300">
    <ele>8.8</ele>
    <time>2025-12-22T13:45:18Z</time>
   </trkpt>
   <trkpt lat="53.3425900" lon="-6.2560360">
    <ele>8.9</ele>
    <time>2025-12-22T13:45:23Z</time>
   </trkpt>
   <trkpt lat="53.3425620" lon="-6.2559090">
    <ele>9.1</ele>
    <time>2025-12-22T13:45:29Z</time>
   </trkpt>
   <trkpt lat="53.3425490" lon="-6.2558070">
    <ele>9.0</ele>
    <time>2025-12-22T13:45:34Z</time>
   </trkpt>
   <trkpt lat="53.3425460" lon="-6.2557020">
    <ele>9.1</ele>
    <time>2025-12-22T13:45:39Z</time>
   </trkpt>
   <trkpt lat="53.3425090" lon="-6.2556250">
    <ele>9.3</ele>
    <time>2025-12-22T13:45:44Z</time>
   </trkpt>
   <trkpt lat="53.3424890" lon="-6.2555120">
    <ele>9.4</ele>
    <time>2025-12-22T13:45:50Z</time>
   </trkpt>
   <trkpt lat="53.3424730" lon="-6.2554100">
    <ele>9.4</ele>
    <time>2025-12-22T13:45:55Z</time>
   </trkpt>
   <trkpt lat="53.3424550" lon="-6.2553140">
    <ele>9.5</ele>
    <time>2025-12-22T13:46:00Z</time>
   </trkpt>
   <trkpt lat="53.3424180" lon="-6.2551930">
    <ele>9.5</ele>
    <time>2025-12-22T13:46:06Z</time>
   </trkpt>
   <trkpt lat="53.3424000" lon="-6.2550980">
    <ele>9.5</ele>
    <time>2025-12-22T13:46:11Z</time>
   </trkpt>
   <trkpt lat="53.3423830" lon="-6.2550050">
    <ele>9.5</ele>
    <time>2025-12-22T13:46:16Z</time>
   </trkpt>
   <trkpt lat="53.3423670" lon="-6.2549120">
    <ele>9.5</ele>
    <time>2025-12-22T13:46:21Z</time>
   </trkpt>
   <trkpt lat="53.3423440" lon="-6.2548100">
    <ele>9.5</ele>
    <time>2025-12-22T13:46:26Z</time>
   </trkpt>
   <trkpt lat="53.3423170" lon="-6.2547120">
    <ele>9.5</ele>
    <time>2025-12-22T13:46:32Z</time>
   </trkpt>
   <trkpt lat="53.3422960" lon="-6.2546170">
    <ele>9.5</ele>
    <time>2025-12-22T13:46:37Z</time>
   </trkpt>
   <trkpt lat="53.3422810" lon="-6.2545290">
    <ele>9.4</ele>
    <time>2025-12-22T13:46:42Z</time>
   </trkpt>
   <trkpt lat="53.3422620" lon="-6.2544460">
    <ele>9.1</ele>
    <time>2025-12-22T13:46:47Z</time>
   </trkpt>
   <trkpt lat="53.3422390" lon="-6.2543720">
    <ele>9.2</ele>
    <time>2025-12-22T13:46:53Z</time>
   </trkpt>
   <trkpt lat="53.3422220" lon="-6.2542820">
    <ele>9.0</ele>
    <time>2025-12-22T13:46:59Z</time>
   </trkpt>
   <trkpt lat="53.3422020" lon="-6.2541510">
    <ele>8.9</ele>
    <time>2025-12-22T13:47:05Z</time>
   </trkpt>
   <trkpt lat="53.3421760" lon="-6.2540270">
    <ele>8.8</ele>
    <time>2025-12-22T13:47:10Z</time>
   </trkpt>
   <trkpt lat="53.3421530" lon="-6.2539470">
    <ele>8.8</ele>
    <time>2025-12-22T13:47:15Z</time>
   </trkpt>
   <trkpt lat="53.3421200" lon="-6.2538320">
    <ele>8.8</ele>
    <time>2025-12-22T13:47:21Z</time>
   </trkpt>
   <trkpt lat="53.3421000" lon="-6.2537260">
    <ele>8.8</ele>
    <time>2025-12-22T13:47:26Z</time>
   </trkpt>
   <trkpt lat="53.3420750" lon="-6.2536280">
    <ele>8.8</ele>
    <time>2025-12-22T13:47:31Z</time>
   </trkpt>
   <trkpt lat="53.3420500" lon="-6.2535420">
    <ele>8.8</ele>
    <time>2025-12-22T13:47:36Z</time>
   </trkpt>
   <trkpt lat="53.3420300" lon="-6.2534570">
    <ele>8.8</ele>
    <time>2025-12-22T13:47:42Z</time>
   </trkpt>
   <trkpt lat="53.3420100" lon="-6.2533510">
    <ele>8.6</ele>
    <time>2025-12-22T13:47:47Z</time>
   </trkpt>
   <trkpt lat="53.3420010" lon="-6.2532720">
    <ele>8.5</ele>
    <time>2025-12-22T13:47:52Z</time>
   </trkpt>
   <trkpt lat="53.3419830" lon="-6.2531970">
    <ele>8.5</ele>
    <time>2025-12-22T13:47:58Z</time>
   </trkpt>
   <trkpt lat="53.3419730" lon="-6.2531100">
    <ele>8.4</ele>
    <time>2025-12-22T13:48:04Z</time>
   </trkpt>
   <trkpt lat="53.3419360" lon="-6.2529760">
    <ele>8.4</ele>
    <time>2025-12-22T13:48:09Z</time>
   </trkpt>
   <trkpt lat="53.3419190" lon="-6.2528420">
    <ele>8.4</ele>
    <time>2025-12-22T13:48:14Z</time>
   </trkpt>
   <trkpt lat="53.3419120" lon="-6.2527300">
    <ele>8.4</ele>
    <time>2025-12-22T13:48:20Z</time>
   </trkpt>
   <trkpt lat="53.3419100" lon="-6.2526250">
    <ele>8.3</ele>
    <time>2025-12-22T13:48:25Z</time>
   </trkpt>
   <trkpt lat="53.3419070" lon="-6.2525110">
    <ele>8.1</ele>
    <time>2025-12-22T13:48:30Z</time>
   </trkpt>
   <trkpt lat="53.3419380" lon="-6.2523900">
    <ele>8.2</ele>
    <time>2025-12-22T13:48:35Z</time>
   </trkpt>
   <trkpt lat="53.3419900" lon="-6.2522690">
    <ele>8.0</ele>
    <time>2025-12-22T13:48:41Z</time>
   </trkpt>
   <trkpt lat="53.3420210" lon="-6.2521760">
    <ele>7.8</ele>
    <time>2025-12-22T13:48:46Z</time>
   </trkpt>
   <trkpt lat="53.3420450" lon="-6.2520970">
    <ele>7.8</ele>
    <time>2025-12-22T13:48:51Z</time>
   </trkpt>
   <trkpt lat="53.3420720" lon="-6.2520110">
    <ele>7.7</ele>
    <time>2025-12-22T13:48:57Z</time>
   </trkpt>
   <trkpt lat="53.3421040" lon="-6.2519240">
    <ele>7.7</ele>
    <time>2025-12-22T13:49:02Z</time>
   </trkpt>
   <trkpt lat="53.3421310" lon="-6.2518530">
    <ele>7.7</ele>
    <time>2025-12-22T13:49:07Z</time>
   </trkpt>
   <trkpt lat="53.3421560" lon="-6.2517890">
    <ele>7.6</ele>
    <time>2025-12-22T13:49:12Z</time>
   </trkpt>
   <trkpt lat="53.3421790" lon="-6.2517200">
    <ele>7.7</ele>
    <time>2025-12-22T13:49:17Z</time>
   </trkpt>
   <trkpt lat="53.3422120" lon="-6.2516350">
    <ele>7.7</ele>
    <time>2025-12-22T13:49:22Z</time>
   </trkpt>
   <trkpt lat="53.3422150" lon="-6.2515580">
    <ele>7.7</ele>
    <time>2025-12-22T13:49:29Z</time>
   </trkpt>
   <trkpt lat="53.3421960" lon="-6.2514580">
    <ele>7.7</ele>
    <time>2025-12-22T13:49:34Z</time>
   </trkpt>
   <trkpt lat="53.3421820" lon="-6.2513290">
    <ele>7.7</ele>
    <time>2025-12-22T13:49:39Z</time>
   </trkpt>
   <trkpt lat="53.3421550" lon="-6.2512170">
    <ele>7.7</ele>
    <time>2025-12-22T13:49:44Z</time>
   </trkpt>
   <trkpt lat="53.3421370" lon="-6.2511340">
    <ele>7.7</ele>
    <time>2025-12-22T13:49:50Z</time>
   </trkpt>
   <trkpt lat="53.3421200" lon="-6.2510510">
    <ele>7.7</ele>
    <time>2025-12-22T13:49:55Z</time>
   </trkpt>
   <trkpt lat="53.3421230" lon="-6.2509710">
    <ele>7.9</ele>
    <time>2025-12-22T13:50:00Z</time>
   </trkpt>
   <trkpt lat="53.3421080" lon="-6.2508890">
    <ele>7.9</ele>
    <time>2025-12-22T13:50:06Z</time>
   </trkpt>
   <trkpt lat="53.3420800" lon="-6.2507800">
    <ele>8.1</ele>
    <time>2025-12-22T13:50:11Z</time>
   </trkpt>
   <trkpt lat="53.3420780" lon="-6.2506850">
    <ele>8.3</ele>
    <time>2025-12-22T13:50:16Z</time>
   </trkpt>
   <trkpt lat="53.3420960" lon="-6.2506090">
    <ele>8.3</ele>
    <time>2025-12-22T13:50:22Z</time>
   </trkpt>
   <trkpt lat="53.3421490" lon="-6.2505900">
    <ele>8.3</ele>
    <time>2025-12-22T13:50:27Z</time>
   </trkpt>
   <trkpt lat="53.3422180" lon="-6.2505700">
    <ele>8.2</ele>
    <time>2025-12-22T13:50:32Z</time>
   </trkpt>
   <trkpt lat="53.3423010" lon="-6.2505330">
    <ele>8.0</ele>
    <time>2025-12-22T13:50:38Z</time>
   </trkpt>
   <trkpt lat="53.3423660" lon="-6.2504940">
    <ele>8.0</ele>
    <time>2025-12-22T13:50:43Z</time>
   </trkpt>
   <trkpt lat="53.3424250" lon="-6.2504670">
    <ele>8.1</ele>
    <time>2025-12-22T13:50:48Z</time>
   </trkpt>
   <trkpt lat="53.3424750" lon="-6.2504290">
    <ele>8.1</ele>
    <time>2025-12-22T13:50:54Z</time>
   </trkpt>
   <trkpt lat="53.3425390" lon="-6.2503920">
    <ele>8.1</ele>
    <time>2025-12-22T13:50:59Z</time>
   </trkpt>
   <trkpt lat="53.3426000" lon="-6.2503610">
    <ele>8.1</ele>
    <time>2025-12-22T13:51:04Z</time>
   </trkpt>
   <trkpt lat="53.3426580" lon="-6.2503300">
    <ele>8.1</ele>
    <time>2025-12-22T13:51:09Z</time>
   </trkpt>
   <trkpt lat="53.3427140" lon="-6.2502930">
    <ele>8.2</ele>
    <time>2025-12-22T13:51:15Z</time>
   </trkpt>
   <trkpt lat="53.3427610" lon="-6.2502580">
    <ele>8.1</ele>
    <time>2025-12-22T13:51:20Z</time>
   </trkpt>
   <trkpt lat="53.3428150" lon="-6.2502240">
    <ele>8.1</ele>
    <time>2025-12-22T13:51:25Z</time>
   </trkpt>
   <trkpt lat="53.3428690" lon="-6.2501950">
    <ele>8.0</ele>
    <time>2025-12-22T13:51:30Z</time>
   </trkpt>
   <trkpt lat="53.3429190" lon="-6.2501630">
    <ele>7.9</ele>
    <time>2025-12-22T13:51:36Z</time>
   </trkpt>
   <trkpt lat="53.3429670" lon="-6.2501230">
    <ele>8.0</ele>
    <time>2025-12-22T13:51:41Z</time>
   </trkpt>
   <trkpt lat="53.3429680" lon="-6.2500460">
    <ele>8.0</ele>
    <time>2025-12-22T13:51:54Z</time>
   </trkpt>
   <trkpt lat="53.3430140" lon="-6.2499610">
    <ele>7.7</ele>
    <time>2025-12-22T13:51:59Z</time>
   </trkpt>
   <trkpt lat="53.3430640" lon="-6.2498900">
    <ele>7.3</ele>
    <time>2025-12-22T13:52:04Z</time>
   </trkpt>
   <trkpt lat="53.3431170" lon="-6.2498350">
    <ele>7.1</ele>
    <time>2025-12-22T13:52:10Z</time>
   </trkpt>
   <trkpt lat="53.3431870" lon="-6.2497860">
    <ele>7.0</ele>
    <time>2025-12-22T13:52:15Z</time>
   </trkpt>
   <trkpt lat="53.3432410" lon="-6.2497600">
    <ele>7.0</ele>
    <time>2025-12-22T13:52:20Z</time>
   </trkpt>
   <trkpt lat="53.3432980" lon="-6.2497220">
    <ele>6.9</ele>
    <time>2025-12-22T13:52:26Z</time>
   </trkpt>
   <trkpt lat="53.3433590" lon="-6.2496840">
    <ele>7.0</ele>
    <time>2025-12-22T13:52:31Z</time>
   </trkpt>
   <trkpt lat="53.3434070" lon="-6.2496540">
    <ele>6.9</ele>
    <time>2025-12-22T13:52:37Z</time>
   </trkpt>
   <trkpt lat="53.3434510" lon="-6.2496060">
    <ele>6.8</ele>
    <time>2025-12-22T13:52:42Z</time>
   </trkpt>
   <trkpt lat="53.3434800" lon="-6.2495480">
    <ele>6.8</ele>
    <time>2025-12-22T13:52:47Z</time>
   </trkpt>
   <trkpt lat="53.3433990" lon="-6.2491950">
    <ele>6.8</ele>
    <time>2025-12-22T13:53:12Z</time>
   </trkpt>
   <trkpt lat="53.3433700" lon="-6.2491240">
    <ele>6.8</ele>
    <time>2025-12-22T13:53:18Z</time>
   </trkpt>
   <trkpt lat="53.3433510" lon="-6.2490490">
    <ele>7.5</ele>
    <time>2025-12-22T13:53:24Z</time>
   </trkpt>
   <trkpt lat="53.3433420" lon="-6.2489720">
    <ele>9.9</ele>
    <time>2025-12-22T13:53:33Z</time>
   </trkpt>
   <trkpt lat="53.3433420" lon="-6.2488950">
    <ele>11.9</ele>
    <time>2025-12-22T13:53:55Z</time>
   </trkpt>
   <trkpt lat="53.3433510" lon="-6.2488210">
    <ele>11.9</ele>
    <time>2025-12-22T13:54:12Z</time>
   </trkpt>
   <trkpt lat="53.3433360" lon="-6.2486720">
    <ele>12.0</ele>
    <time>2025-12-22T13:54:17Z</time>
   </trkpt>
   <trkpt lat="53.3433280" lon="-6.2485880">
    <ele>12.0</ele>
    <time>2025-12-22T13:54:22Z</time>
   </trkpt>
   <trkpt lat="53.3433160" lon="-6.2484700">
    <ele>12.0</ele>
    <time>2025-12-22T13:54:28Z</time>
   </trkpt>
   <trkpt lat="53.3432910" lon="-6.2483630">
    <ele>12.0</ele>
    <time>2025-12-22T13:54:33Z</time>
   </trkpt>
   <trkpt lat="53.3432860" lon="-6.2482790">
    <ele>12.0</ele>
    <time>2025-12-22T13:54:38Z</time>
   </trkpt>
   <trkpt lat="53.3432920" lon="-6.2482010">
    <ele>12.0</ele>
    <time>2025-12-22T13:54:43Z</time>
   </trkpt>
   <trkpt lat="53.3432320" lon="-6.2480890">
    <ele>12.0</ele>
    <time>2025-12-22T13:54:48Z</time>
   </trkpt>
   <trkpt lat="53.3432260" lon="-6.2479990">
    <ele>12.1</ele>
    <time>2025-12-22T13:54:56Z</time>
   </trkpt>
   <trkpt lat="53.3432150" lon="-6.2479200">
    <ele>12.1</ele>
    <time>2025-12-22T13:55:02Z</time>
   </trkpt>
   <trkpt lat="53.3431760" lon="-6.2478710">
    <ele>12.1</ele>
    <time>2025-12-22T13:55:07Z</time>
   </trkpt>
   <trkpt lat="53.3431300" lon="-6.2477930">
    <ele>12.1</ele>
    <time>2025-12-22T13:55:16Z</time>
   </trkpt>
   <trkpt lat="53.3431810" lon="-6.2477620">
    <ele>12.0</ele>
    <time>2025-12-22T13:55:30Z</time>
   </trkpt>
   <trkpt lat="53.3432330" lon="-6.2478160">
    <ele>12.0</ele>
    <time>2025-12-22T13:55:38Z</time>
   </trkpt>
   <trkpt lat="53.3433370" lon="-6.2479060">
    <ele>12.0</ele>
    <time>2025-12-22T13:55:43Z</time>
   </trkpt>
   <trkpt lat="53.3433110" lon="-6.2478380">
    <ele>12.1</ele>
    <time>2025-12-22T13:55:55Z</time>
   </trkpt>
   <trkpt lat="53.3432600" lon="-6.2477760">
    <ele>12.1</ele>
    <time>2025-12-22T13:56:10Z</time>
   </trkpt>
   <trkpt lat="53.3432330" lon="-6.2477150">
    <ele>12.1</ele>
    <time>2025-12-22T13:57:12Z</time>
   </trkpt>
   <trkpt lat="53.3432050" lon="-6.2476410">
    <ele>12.0</ele>
    <time>2025-12-22T13:57:26Z</time>
   </trkpt>
   <trkpt lat="53.3432170" lon="-6.2475680">
    <ele>12.1</ele>
    <time>2025-12-22T14:00:01Z</time>
   </trkpt>
   <trkpt lat="53.3431710" lon="-6.2475650">
    <ele>12.0</ele>
    <time>2025-12-22T14:02:33Z</time>
   </trkpt>
   <trkpt lat="53.3431400" lon="-6.2474870">
    <ele>12.1</ele>
    <time>2025-12-22T14:02:46Z</time>
   </trkpt>
   <trkpt lat="53.3431320" lon="-6.2474030">
    <ele>12.1</ele>
    <time>2025-12-22T14:05:55Z</time>
   </trkpt>
   <trkpt lat="53.3431140" lon="-6.2472840">
    <ele>12.1</ele>
    <time>2025-12-22T14:06:01Z</time>
   </trkpt>
   <trkpt lat="53.3430450" lon="-6.2471610">
    <ele>12.1</ele>
    <time>2025-12-22T14:06:06Z</time>
   </trkpt>
   <trkpt lat="53.3430220" lon="-6.2470370">
    <ele>12.1</ele>
    <time>2025-12-22T14:06:11Z</time>
   </trkpt>
   <trkpt lat="53.3429990" lon="-6.2469630">
    <ele>12.0</ele>
    <time>2025-12-22T14:06:21Z</time>
   </trkpt>
   <trkpt lat="53.3430150" lon="-6.2468850">
    <ele>12.0</ele>
    <time>2025-12-22T14:06:29Z</time>
   </trkpt>
  </trkseg>
 </trk>
</gpx>
